Time;durP1;ratioP1;P1;durP2;ratioP2;P2;SDS_P1;SDS_P2;PMS_P1;PMS_P2;Temp;Humidity;BMP_temperature;BMP_pressure;BME280_temperature;BME280_humidity;BME280_pressure;Samples;Min_cycle;Max_cycle;Signal;HPM_P1;HPM_P2
2022/11/24 00:02:18;;;;;;;116.45;61.83;;;;;;;16.47;62.84;98792.78;5038337;28;20057;-61
2022/11/24 00:05:13;;;;;;;118.97;60.40;;;;;;;16.42;62.56;98795.41;5047928;28;20059;-62
2022/11/24 00:07:49;;;;;;;112.43;61.65;;;;;;;16.43;63.24;98797.88;5039033;28;20136;-62
2022/11/24 00:10:44;;;;;;;116.80;61.55;;;;;;;16.19;62.29;98797.25;5046534;28;20056;-61
2022/11/24 00:13:20;;;;;;;119.82;60.65;;;;;;;16.39;62.43;98793.19;5045423;28;20041;-62
2022/11/24 00:16:19;;;;;;;111.28;62.38;;;;;;;16.44;62.86;98801.41;5047152;28;20052;-61
2022/11/24 00:19:03;;;;;;;111.10;61.30;;;;;;;16.32;63.61;98798.81;5047030;28;20047;-62
2022/11/24 00:21:59;;;;;;;109.38;60.85;;;;;;;16.42;62.59;98806.25;5046904;28;20859;-62
2022/11/24 00:24:49;;;;;;;113.47;62.83;;;;;;;16.49;62.34;98806.06;5047002;28;20140;-61
2022/11/24 00:27:31;;;;;;;120.57;65.72;;;;;;;16.53;61.92;98812.66;5044781;28;20127;-62
2022/11/24 00:30:20;;;;;;;110.72;63.80;;;;;;;16.42;62.74;98811.66;5046198;28;20084;-62
2022/11/24 00:33:15;;;;;;;118.13;63.95;;;;;;;16.28;63.68;98822.03;5045988;28;20087;-62
2022/11/24 00:35:59;;;;;;;119.45;64.25;;;;;;;16.33;64.32;98818.56;5046976;28;20154;-62
2022/11/24 00:38:52;;;;;;;115.68;65.35;;;;;;;16.39;63.85;98823.00;5046647;28;20055;-62
2022/11/24 00:41:35;;;;;;;112.97;63.97;;;;;;;16.35;64.11;98817.25;5047153;28;20553;-62
2022/11/24 00:44:30;;;;;;;119.88;67.55;;;;;;;16.21;64.47;98821.41;5046689;28;20045;-63
2022/11/24 00:47:07;;;;;;;118.20;65.88;;;;;;;16.36;64.15;98832.44;5046254;28;20049;-63
2022/11/24 00:50:01;;;;;;;113.60;64.90;;;;;;;16.25;63.42;98831.47;5029205;28;20111;-62
2022/11/24 00:52:37;;;;;;;117.75;64.45;;;;;;;16.17;64.88;98831.09;5046060;28;20053;-62
2022/11/24 00:55:31;;;;;;;117.78;66.95;;;;;;;16.12;64.43;98822.88;5045858;28;20463;-63
2022/11/24 00:58:07;;;;;;;112.28;63.28;;;;;;;16.07;63.71;98826.34;5046117;28;20094;-61
2022/11/24 01:01:08;;;;;;;108.00;62.50;;;;;;;16.10;63.12;98830.44;5044690;28;20045;-62
2022/11/24 01:03:46;;;;;;;110.28;63.08;;;;;;;15.94;64.23;98832.09;5043434;28;20060;-64
2022/11/24 01:06:35;;;;;;;124.38;64.78;;;;;;;16.05;63.71;98828.47;5045926;28;20052;-62
2022/11/24 01:09:17;;;;;;;124.25;65.15;;;;;;;15.90;63.92;98830.91;5045519;28;20103;-62
2022/11/24 01:12:07;;;;;;;112.63;63.65;;;;;;;15.88;64.98;98828.47;5028550;28;20048;-63
2022/11/24 01:14:49;;;;;;;108.82;62.85;;;;;;;15.86;64.52;98830.59;5043700;28;20705;-63
2022/11/24 01:17:44;;;;;;;109.15;64.07;;;;;;;15.83;65.18;98831.09;5049866;28;20134;-63
2022/11/24 01:20:20;;;;;;;109.93;64.22;;;;;;;15.80;65.54;98837.81;5044255;28;20063;-63
2022/11/24 01:23:14;;;;;;;112.68;65.20;;;;;;;15.79;65.04;98835.34;5045034;28;20144;-63
2022/11/24 01:25:50;;;;;;;113.22;65.35;;;;;;;15.65;65.12;98845.63;5046162;28;20045;-63
2022/11/24 01:28:44;;;;;;;113.03;63.33;;;;;;;15.51;65.58;98845.09;5025422;28;20057;-62
2022/11/24 01:31:21;;;;;;;113.38;62.92;;;;;;;15.25;66.18;98852.75;5045937;28;20111;-62
2022/11/24 01:34:12;;;;;;;113.38;65.85;;;;;;;15.29;66.25;98853.09;5043597;28;20131;-62
2022/11/24 01:36:53;;;;;;;119.97;65.07;;;;;;;15.13;66.68;98856.56;5045915;28;20049;-62
2022/11/24 01:39:42;;;;;;;114.80;64.78;;;;;;;15.02;66.96;98848.25;5045672;28;20812;-62
2022/11/24 01:42:31;;;;;;;109.05;65.00;;;;;;;14.91;67.26;98859.91;5042298;28;20125;-62
2022/11/24 01:45:39;;;;;;;113.40;65.50;;;;;;;14.92;67.09;98853.44;5044275;28;20053;-61
2022/11/24 01:48:38;;;;;;;127.60;67.15;;;;;;;14.94;67.71;98864.84;5044306;28;20136;-62
2022/11/24 01:51:24;;;;;;;114.60;65.63;;;;;;;14.88;67.62;98866.63;5037970;28;20048;-62
2022/11/24 01:54:38;;;;;;;114.55;65.35;;;;;;;14.94;67.83;98870.25;5045227;28;20848;-63
2022/11/24 01:57:30;;;;;;;112.10;64.97;;;;;;;15.00;68.05;98877.41;5044724;28;20053;-63
2022/11/24 02:00:20;;;;;;;115.75;65.60;;;;;;;14.82;68.95;98878.34;5044392;28;20052;-62
2022/11/24 02:03:02;;;;;;;119.55;66.25;;;;;;;14.90;68.98;98879.06;5044374;28;20041;-62
2022/11/24 02:06:18;;;;;;;126.13;70.53;;;;;;;14.90;68.72;98887.97;5044491;28;20106;-62
2022/11/24 02:09:33;;;;;;;121.53;69.00;;;;;;;14.90;68.75;98885.28;5044775;28;20468;-62
2022/11/24 02:12:16;;;;;;;129.20;68.22;;;;;;;14.87;69.01;98885.75;5063889;28;20126;-60
2022/11/24 02:15:07;;;;;;;127.60;69.03;;;;;;;15.05;68.74;98893.69;5058324;28;20084;-61
2022/11/24 02:17:56;;;;;;;127.03;70.03;;;;;;;15.25;68.83;98898.72;5045104;28;20532;-61
2022/11/24 02:20:39;;;;;;;129.75;70.68;;;;;;;15.52;69.33;98900.03;5044082;28;20091;-61
2022/11/24 02:23:36;;;;;;;131.95;71.65;;;;;;;15.46;68.86;98908.03;5042616;28;20063;-61
2022/11/24 02:26:24;;;;;;;126.95;69.60;;;;;;;15.36;70.13;98907.88;5044486;28;20045;-60
2022/11/24 02:29:20;;;;;;;126.85;69.97;;;;;;;15.76;69.01;98907.03;5038735;28;20111;-60
2022/11/24 02:32:11;;;;;;;128.27;69.40;;;;;;;15.94;69.06;98913.28;5029100;28;20055;-61
2022/11/24 02:35:11;;;;;;;127.93;71.55;;;;;;;16.11;68.16;98902.44;5025670;28;20745;-60
2022/11/24 02:37:53;;;;;;;130.48;69.05;;;;;;;16.21;66.85;98903.44;5043625;28;20049;-60
2022/11/24 02:40:44;;;;;;;130.80;69.07;;;;;;;16.24;66.51;98919.22;5043435;28;20053;-61
2022/11/24 02:43:29;;;;;;;122.97;66.45;;;;;;;16.37;66.85;98911.81;5022475;28;20089;-59
2022/11/24 02:46:18;;;;;;;156.00;69.93;;;;;;;16.43;66.72;98916.22;5044188;28;20419;-60
2022/11/24 02:49:00;;;;;;;121.15;69.95;;;;;;;16.60;66.77;98921.63;5044936;28;20048;-60
2022/11/24 02:51:49;;;;;;;126.43;70.97;;;;;;;16.76;66.07;98922.69;5044671;28;20060;-60
2022/11/24 02:54:32;;;;;;;125.18;67.40;;;;;;;16.88;65.94;98928.84;5044088;28;20048;-60
2022/11/24 02:57:22;;;;;;;134.30;71.65;;;;;;;17.03;65.47;98934.47;5042763;28;20052;-61
2022/11/24 03:00:05;;;;;;;120.20;72.60;;;;;;;17.19;65.19;98934.69;5042892;28;20072;-60
2022/11/24 03:02:54;;;;;;;131.95;74.90;;;;;;;17.26;65.17;98935.31;5044610;28;20053;-62
2022/11/24 03:05:43;;;;;;;128.30;74.18;;;;;;;17.35;65.04;98938.41;5036222;28;20128;-62
2022/11/24 03:08:33;;;;;;;137.50;75.22;;;;;;;17.50;64.67;98941.31;5044945;28;20547;-62
2022/11/24 03:11:14;;;;;;;133.80;77.28;;;;;;;17.68;63.74;98940.16;5044655;28;20045;-62
2022/11/24 03:14:03;;;;;;;132.60;75.97;;;;;;;17.86;62.35;98938.19;5042389;28;20067;-62
2022/11/24 03:16:45;;;;;;;131.57;72.47;;;;;;;18.05;61.42;98938.66;5043362;28;20068;-62
2022/11/24 03:19:34;;;;;;;133.07;75.07;;;;;;;18.38;59.33;98948.44;5042777;28;20544;-61
2022/11/24 03:22:16;;;;;;;125.95;70.05;;;;;;;18.73;60.33;98952.50;5043906;28;20049;-62
2022/11/24 03:25:05;;;;;;;111.63;64.03;;;;;;;19.08;56.78;98943.78;5043564;28;20125;-62
2022/11/24 03:27:54;;;;;;;111.93;57.55;;;;;;;19.44;54.10;98943.94;5041577;28;20175;-62
2022/11/24 03:30:43;;;;;;;106.95;58.60;;;;;;;19.96;53.03;98953.09;5042445;28;20107;-62
2022/11/24 03:33:32;;;;;;;95.32;56.72;;;;;;;20.34;52.43;98956.41;5036641;28;20053;-60
2022/11/24 03:36:15;;;;;;;165.50;60.25;;;;;;;20.66;51.86;98955.34;5044229;28;20045;-61
2022/11/24 03:39:04;;;;;;;90.70;52.10;;;;;;;20.99;50.34;98967.56;5044302;28;20091;-63
2022/11/24 03:41:46;;;;;;;91.18;51.65;;;;;;;21.97;46.43;98973.44;5043635;28;20474;-62
2022/11/24 03:44:35;;;;;;;87.60;49.80;;;;;;;22.66;44.57;98974.34;5043541;28;20061;-62
2022/11/24 03:47:17;;;;;;;80.53;49.58;;;;;;;22.97;44.58;98976.78;5043237;28;20072;-62
2022/11/24 03:50:06;;;;;;;91.78;49.67;;;;;;;23.41;44.21;98973.06;5047124;28;20681;-62
2022/11/24 03:53:01;;;;;;;87.20;48.30;;;;;;;23.40;43.96;98981.56;5046812;28;20051;-62
2022/11/24 03:55:37;;;;;;;97.07;49.22;;;;;;;23.42;43.82;98974.66;5056484;28;20072;-62
2022/11/24 03:58:27;;;;;;;85.47;49.45;;;;;;;23.67;43.13;98983.69;5052034;28;20073;-62
2022/11/24 04:01:16;;;;;;;91.25;48.50;;;;;;;23.78;44.21;98992.59;5061199;28;20056;-62
2022/11/24 04:04:05;;;;;;;87.18;46.78;;;;;;;24.08;41.33;98985.91;5067787;28;20527;-62
2022/11/24 04:06:53;;;;;;;81.45;47.90;;;;;;;24.75;38.34;98993.91;5053134;28;20049;-62
2022/11/24 04:09:36;;;;;;;89.60;48.08;;;;;;;24.75;38.60;98993.91;5039927;28;20132;-64
2022/11/24 04:12:42;;;;;;;81.43;46.63;;;;;;;25.05;38.27;99001.91;5008966;28;20077;-64
2022/11/24 04:15:38;;;;;;;85.70;48.72;;;;;;;25.21;38.13;99004.06;5006744;28;20129;-63
2022/11/24 04:18:14;;;;;;;82.13;46.90;;;;;;;25.01;39.39;99005.28;5025513;28;20140;-63
2022/11/24 04:21:09;;;;;;;89.38;47.13;;;;;;;25.36;38.10;99000.25;5010403;28;20045;-64
2022/11/24 04:23:45;;;;;;;87.07;47.28;;;;;;;25.66;37.52;99005.41;5038940;28;20152;-64
2022/11/24 04:26:41;;;;;;;76.47;47.22;;;;;;;25.69;38.50;99011.13;5026187;28;20161;-62
2022/11/24 04:29:23;;;;;;;80.03;47.50;;;;;;;25.39;39.54;99016.13;5018758;28;20485;-64
2022/11/24 04:32:12;;;;;;;86.30;49.38;;;;;;;25.25;37.77;99017.22;5037239;28;20054;-63
2022/11/24 04:34:54;;;;;;;86.78;46.72;;;;;;;25.64;37.25;99013.16;5035476;28;20075;-63
2022/11/24 04:37:43;;;;;;;85.05;47.83;;;;;;;25.54;34.65;99015.00;5025742;28;20049;-63
2022/11/24 04:40:25;;;;;;;78.78;47.63;;;;;;;25.57;35.72;99014.38;5025399;28;20148;-64
2022/11/24 04:43:17;;;;;;;90.82;49.40;;;;;;;25.51;35.79;99012.03;5029967;28;20057;-63
2022/11/24 04:46:00;;;;;;;99.78;52.15;;;;;;;25.48;35.89;99016.22;5032003;28;20428;-62
2022/11/24 04:48:49;;;;;;;91.28;52.45;;;;;;;25.59;37.34;99012.16;5040610;28;20051;-63
2022/11/24 04:51:31;;;;;;;99.60;50.13;;;;;;;25.65;38.02;99020.28;5036551;28;20044;-63
2022/11/24 04:54:21;;;;;;;83.65;51.75;;;;;;;25.50;34.81;99013.97;5035780;28;20052;-63
2022/11/24 04:57:04;;;;;;;91.65;50.55;;;;;;;25.70;34.32;99011.91;5036856;28;20145;-63
2022/11/24 04:59:52;;;;;;;95.03;50.78;;;;;;;24.84;34.45;99002.28;5039746;28;20106;-63
2022/11/24 05:02:35;;;;;;;93.07;49.40;;;;;;;25.12;36.39;99008.63;5045095;28;20740;-66
2022/11/24 05:05:23;;;;;;;100.82;53.85;;;;;;;24.93;34.32;99013.38;5030753;28;20119;-65
2022/11/24 05:08:12;;;;;;;96.35;52.88;;;;;;;25.40;34.87;99004.00;5055431;28;20067;-63
2022/11/24 05:11:01;;;;;;;109.97;54.13;;;;;;;25.58;35.72;99013.28;5038502;28;20056;-65
2022/11/24 05:13:44;;;;;;;104.97;55.75;;;;;;;25.69;35.24;99010.31;5045504;28;20080;-65
2022/11/24 05:16:32;;;;;;;107.65;55.13;;;;;;;25.57;33.40;99002.59;5049386;28;20056;-64
2022/11/24 05:19:15;;;;;;;95.63;53.03;;;;;;;25.34;35.79;99009.91;5057179;28;20098;-66
2022/11/24 05:22:08;;;;;;;98.50;52.10;;;;;;;25.92;33.77;99002.97;5044217;28;20045;-69
2022/11/24 05:24:50;;;;;;;89.20;47.88;;;;;;;26.01;34.30;98998.38;5042737;28;20496;-64
2022/11/24 05:27:39;;;;;;;94.40;50.80;;;;;;;25.83;33.00;99000.09;5038155;28;20164;-61
2022/11/24 05:30:21;;;;;;;89.85;48.70;;;;;;;25.84;33.78;98999.00;5033267;28;20443;-64
2022/11/24 05:33:17;;;;;;;112.38;54.55;;;;;;;26.03;33.49;98992.56;5044598;28;20072;-63
2022/11/24 05:36:01;;;;;;;86.57;47.40;;;;;;;25.67;31.82;98979.56;5045434;28;20048;-61
2022/11/24 05:38:50;;;;;;;94.32;43.13;;;;;;;25.61;31.83;98980.81;5045249;28;20076;-62
2022/11/24 05:41:32;;;;;;;86.03;44.78;;;;;;;25.90;32.60;98983.19;5044913;28;20048;-62
2022/11/24 05:44:21;;;;;;;88.20;47.72;;;;;;;26.08;33.88;98987.78;5025301;28;20635;-63
2022/11/24 05:47:03;;;;;;;81.20;42.10;;;;;;;26.37;32.83;98970.84;5025673;28;20122;-64
2022/11/24 05:49:52;;;;;;;75.65;42.15;;;;;;;26.57;35.75;98976.97;5024909;28;20161;-65
2022/11/24 05:52:49;;;;;;;88.72;43.53;;;;;;;26.62;32.55;98976.88;5009813;28;20041;-66
2022/11/24 05:55:24;;;;;;;70.55;38.03;;;;;;;26.40;30.88;98972.16;5019228;28;20045;-63
2022/11/24 05:58:18;;;;;;;70.60;39.50;;;;;;;26.17;31.57;98963.06;5009545;28;20053;-67
2022/11/24 06:00:54;;;;;;;79.22;42.50;;;;;;;26.75;32.80;98964.97;5013727;28;20061;-67
2022/11/24 06:03:43;;;;;;;80.70;42.35;;;;;;;26.98;32.93;98956.66;5013533;28;20684;-67
2022/11/24 06:06:32;;;;;;;85.45;45.03;;;;;;;26.59;32.67;98958.22;5019547;28;20085;-65
2022/11/24 06:09:21;;;;;;;83.45;42.40;;;;;;;26.61;31.42;98950.47;5022953;28;20054;-66
2022/11/24 06:12:13;;;;;;;87.57;43.65;;;;;;;27.04;33.30;98949.88;5011110;28;20053;-64
2022/11/24 06:14:54;;;;;;;85.95;45.83;;;;;;;26.54;31.89;98948.13;5012561;28;20049;-65
2022/11/24 06:17:44;;;;;;;97.28;49.95;;;;;;;26.89;32.57;98947.56;5006985;28;20473;-66
2022/11/24 06:20:26;;;;;;;98.25;51.53;;;;;;;26.54;34.17;98942.63;5023910;28;20045;-65
2022/11/24 06:23:15;;;;;;;105.65;53.75;;;;;;;26.64;34.80;98938.84;5011181;28;20042;-68
2022/11/24 06:25:58;;;;;;;116.25;55.80;;;;;;;26.61;32.17;98933.13;5006635;28;20615;-67
2022/11/24 06:28:53;;;;;;;113.10;56.17;;;;;;;26.85;32.24;98930.03;5014962;28;20064;-68
2022/11/24 06:31:29;;;;;;;107.25;57.08;;;;;;;26.65;34.67;98926.69;5023262;28;20049;-67
2022/11/24 06:34:18;;;;;;;113.95;60.60;;;;;;;26.95;33.02;98924.25;5022838;28;20073;-67
2022/11/24 06:37:00;;;;;;;125.22;59.90;;;;;;;26.72;33.58;98921.53;5023434;28;20053;-67
2022/11/24 06:39:49;;;;;;;135.60;63.55;;;;;;;26.57;33.75;98924.66;5004696;28;20401;-67
2022/11/24 06:42:31;;;;;;;120.32;60.05;;;;;;;26.89;35.94;98923.56;5010334;28;20045;-67
2022/11/24 06:45:26;;;;;;;118.85;61.80;;;;;;;26.84;34.02;98918.19;5008509;28;20054;-68
2022/11/24 06:48:02;;;;;;;121.65;61.13;;;;;;;26.53;32.75;98915.41;5016501;28;20135;-66
2022/11/24 06:50:52;;;;;;;129.93;63.20;;;;;;;26.65;35.04;98907.41;5024309;28;20160;-66
2022/11/24 06:53:42;;;;;;;111.00;62.40;;;;;;;26.95;35.14;98908.53;5021598;28;20053;-68
2022/11/24 06:56:37;;;;;;;121.18;64.63;;;;;;;26.93;35.51;98904.47;5024483;28;20869;-69
2022/11/24 06:59:19;;;;;;;115.25;61.78;;;;;;;26.83;34.61;98902.81;5025268;28;20053;-68
2022/11/24 07:02:09;;;;;;;111.82;60.20;;;;;;;26.79;35.14;98899.06;5009644;28;20042;-68
2022/11/24 07:04:58;;;;;;;110.97;56.53;;;;;;;26.63;33.98;98895.09;5020068;28;20128;-68
2022/11/24 07:07:47;;;;;;;102.80;54.30;;;;;;;26.54;34.26;98892.25;5013174;28;20602;-67
2022/11/24 07:10:30;;;;;;;103.95;51.80;;;;;;;26.78;33.23;98882.88;5019511;28;20049;-68
2022/11/24 07:13:20;;;;;;;98.70;50.88;;;;;;;26.85;36.14;98891.50;5023259;28;20076;-67
2022/11/24 07:16:30;;;;;;;96.13;50.40;;;;;;;27.04;34.39;98886.53;5020912;28;20046;-67
2022/11/24 07:19:18;;;;;;;99.28;48.63;;;;;;;26.74;33.10;98885.44;5002809;28;20175;-67
2022/11/24 07:22:04;;;;;;;84.50;43.33;;;;;;;26.82;32.58;98881.09;5014566;28;20049;-66
2022/11/24 07:24:53;;;;;;;80.65;43.70;;;;;;;26.71;32.71;98864.03;5027368;28;20751;-66
2022/11/24 07:27:35;;;;;;;79.50;43.05;;;;;;;26.69;31.70;98864.38;5039940;28;20056;-66
2022/11/24 07:30:32;;;;;;;73.22;39.03;;;;;;;26.93;33.75;98860.41;5019097;28;20045;-66
2022/11/24 07:33:08;;;;;;;72.18;38.25;;;;;;;26.98;33.48;98859.44;5020031;28;20157;-68
2022/11/24 07:35:59;;;;;;;62.45;36.60;;;;;;;27.07;33.10;98855.56;5011392;28;20076;-67
2022/11/24 07:38:41;;;;;;;75.50;35.58;;;;;;;26.96;32.69;98845.97;5022591;28;20107;-67
2022/11/24 07:41:36;;;;;;;71.15;32.58;;;;;;;26.93;33.04;98844.69;5026059;28;20114;-67
2022/11/24 07:44:12;;;;;;;54.03;28.42;;;;;;;26.80;33.41;98844.81;5033553;28;20042;-68
2022/11/24 07:47:08;;;;;;;45.90;24.95;;;;;;;26.59;31.16;98850.88;5024115;28;20045;-67
2022/11/24 07:49:44;;;;;;;45.95;23.92;;;;;;;26.64;31.48;98836.19;5019102;28;20132;-68
2022/11/24 07:52:33;;;;;;;47.80;23.20;;;;;;;27.09;31.62;98839.53;5008231;28;20045;-67
2022/11/24 07:55:15;;;;;;;42.95;21.48;;;;;;;27.05;30.68;98829.50;5025514;28;20057;-66
2022/11/24 07:58:04;;;;;;;40.58;19.45;;;;;;;27.24;30.86;98827.25;5004235;28;20076;-68
2022/11/24 08:00:46;;;;;;;38.08;18.63;;;;;;;26.54;29.87;98821.53;5024969;28;20140;-66
2022/11/24 08:03:42;;;;;;;28.25;16.63;;;;;;;27.08;29.06;98821.41;5027150;28;20049;-67
2022/11/24 08:06:19;;;;;;;31.55;16.95;;;;;;;26.98;30.44;98824.47;5027058;28;20157;-66
2022/11/24 08:09:17;;;;;;;35.80;17.08;;;;;;;27.15;29.71;98813.47;5020327;28;20061;-67
2022/11/24 08:12:06;;;;;;;38.47;16.73;;;;;;;27.40;31.29;98808.34;5002250;28;20079;-67
2022/11/24 08:15:01;;;;;;;37.53;15.77;;;;;;;26.89;29.30;98805.16;5007289;28;20038;-66
2022/11/24 08:17:44;;;;;;;35.30;14.45;;;;;;;27.15;30.75;98801.63;5007041;28;20132;-66
2022/11/24 08:20:33;;;;;;;33.67;13.70;;;;;;;26.90;30.07;98801.28;5008194;28;20053;-67
2022/11/24 08:23:15;;;;;;;27.38;12.75;;;;;;;26.97;29.81;98794.50;5018705;28;20362;-68
2022/11/24 08:26:14;;;;;;;20.40;10.93;;;;;;;27.05;29.16;98791.72;5025673;28;20045;-67
2022/11/24 08:28:58;;;;;;;25.63;11.25;;;;;;;26.94;28.84;98793.16;5016850;28;20068;-66
2022/11/24 08:31:46;;;;;;;26.27;10.98;;;;;;;27.15;29.15;98791.44;5027448;28;20118;-68
2022/11/24 08:34:28;;;;;;;23.15;10.48;;;;;;;27.22;30.85;98779.94;5027400;28;20045;-69
2022/11/24 08:37:17;;;;;;;30.75;10.32;;;;;;;26.94;28.65;98784.91;5025913;28;20310;-68
2022/11/24 08:40:07;;;;;;;20.35;8.73;;;;;;;27.17;28.61;98782.03;5031363;28;20037;-67
2022/11/24 08:42:55;;;;;;;14.70;9.30;;;;;;;27.25;28.14;98779.31;5045560;28;20051;-68
2022/11/24 08:45:37;;;;;;;18.13;9.55;;;;;;;27.28;29.56;98775.09;5044942;28;20045;-68
2022/11/24 08:48:26;;;;;;;32.10;9.63;;;;;;;27.14;29.06;98780.75;5042080;28;20049;-69
2022/11/24 08:51:14;;;;;;;18.65;9.43;;;;;;;27.15;29.38;98766.66;5045585;28;20569;-68
2022/11/24 08:54:05;;;;;;;19.33;11.40;;;;;;;27.17;29.84;98765.50;5045151;28;20115;-67
2022/11/24 08:56:48;;;;;;;27.10;11.65;;;;;;;26.82;29.76;98770.97;5043071;28;20138;-69
2022/11/24 08:59:37;;;;;;;24.10;11.57;;;;;;;26.89;29.56;98766.59;5045016;28;21118;-68
2022/11/24 09:02:19;;;;;;;23.00;10.45;;;;;;;27.18;29.48;98756.91;5043146;28;20045;-67
2022/11/24 09:05:08;;;;;;;20.25;10.00;;;;;;;27.17;27.94;98765.50;5049277;28;20045;-66
2022/11/24 09:08:10;;;;;;;16.33;8.95;;;;;;;26.90;27.75;98759.16;5039558;28;20055;-67
2022/11/24 09:11:05;;;;;;;19.20;9.02;;;;;;;27.07;27.25;98744.59;5044592;28;20476;-68
2022/11/24 09:13:47;;;;;;;13.75;9.50;;;;;;;27.17;28.37;98746.22;5042095;28;20049;-68
2022/11/24 09:16:35;;;;;;;23.33;11.15;;;;;;;27.27;27.58;98732.97;5012652;28;20060;-67
2022/11/24 09:19:17;;;;;;;19.85;9.63;;;;;;;27.24;29.44;98741.03;5043053;28;20153;-67
2022/11/24 09:22:06;;;;;;;28.20;10.77;;;;;;;27.09;28.71;98734.84;5045064;28;20071;-67
2022/11/24 09:24:48;;;;;;;14.50;8.73;;;;;;;27.11;28.67;98729.03;5044278;28;20424;-68
2022/11/24 09:27:38;;;;;;;17.38;9.98;;;;;;;27.04;28.35;98726.78;5044875;28;20128;-68
2022/11/24 09:30:19;;;;;;;17.45;10.27;;;;;;;27.20;28.36;98729.06;5024317;28;20045;-68
2022/11/24 09:33:09;;;;;;;19.38;9.75;;;;;;;26.94;28.47;98727.91;5023940;28;20049;-69
2022/11/24 09:35:58;;;;;;;21.15;10.18;;;;;;;26.86;28.66;98722.38;5024493;28;20127;-67
2022/11/24 09:38:46;;;;;;;24.38;10.45;;;;;;;27.11;28.26;98718.00;5025034;28;20138;-68
2022/11/24 09:42:05;;;;;;;27.88;9.73;;;;;;;27.01;27.70;98719.16;5025469;28;20465;-69
2022/11/24 09:45:18;;;;;;;18.10;9.40;;;;;;;27.12;28.19;98714.94;5023664;28;20041;-68
2022/11/24 09:48:31;;;;;;;21.83;10.10;;;;;;;26.83;28.38;98712.03;5024078;28;20405;-69
2022/11/24 09:51:23;;;;;;;22.25;10.40;;;;;;;26.90;27.58;98704.91;5023116;28;20707;-69
2022/11/24 09:54:12;;;;;;;30.40;10.05;;;;;;;26.97;28.78;98701.66;5024808;28;20050;-67
2022/11/24 09:57:06;;;;;;;23.05;10.20;;;;;;;26.75;27.76;98706.16;5027381;28;20670;-69
2022/11/24 09:59:47;;;;;;;23.15;10.82;;;;;;;26.90;28.60;98704.06;5022606;28;20081;-67
2022/11/24 10:02:44;;;;;;;23.02;9.82;;;;;;;26.78;27.45;98701.94;5022803;28;20214;-68
2022/11/24 10:05:32;;;;;;;24.48;9.68;;;;;;;26.95;28.81;98703.91;5007503;28;20045;-68
2022/11/24 10:08:41;;;;;;;22.50;9.90;;;;;;;26.90;28.57;98704.91;5024817;28;20069;-67
2022/11/24 10:12:11;;;;;;;17.02;9.38;;;;;;;26.86;28.48;98698.38;5022832;28;20134;-68
2022/11/24 10:15:24;;;;;;;23.30;9.90;;;;;;;26.81;28.82;98695.81;4998954;28;20413;-67
2022/11/24 10:18:37;;;;;;;16.48;9.48;;;;;;;26.87;27.95;98701.97;5021433;28;20089;-67
2022/11/24 10:22:03;;;;;;;23.13;9.33;;;;;;;26.64;28.08;98710.34;5024183;28;20190;-68
2022/11/24 10:24:57;;;;;;;20.77;9.05;;;;;;;26.64;26.55;98712.31;5023906;28;20341;-68
2022/11/24 10:28:07;;;;;;;17.58;8.45;;;;;;;26.69;26.42;98706.63;5022662;28;20045;-67
2022/11/24 10:31:15;;;;;;;18.95;9.25;;;;;;;26.55;26.45;98703.97;5005710;28;20056;-68
2022/11/24 10:34:09;;;;;;;20.50;9.02;;;;;;;26.58;26.39;98703.34;5005188;28;20046;-68
2022/11/24 10:36:57;;;;;;;19.17;8.30;;;;;;;26.62;26.93;98701.59;5014560;28;20045;-67
2022/11/24 10:40:16;;;;;;;14.52;7.68;;;;;;;26.51;27.73;98706.56;5025381;28;20073;-67
2022/11/24 10:43:19;;;;;;;25.90;8.63;;;;;;;26.24;26.41;98704.88;5021419;28;20095;-66
2022/11/24 10:46:29;;;;;;;18.33;8.40;;;;;;;26.40;27.12;98709.94;5023335;28;20095;-66
2022/11/24 10:49:24;;;;;;;15.60;7.90;;;;;;;26.43;27.78;98698.31;5023231;28;20048;-68
2022/11/24 10:52:21;;;;;;;22.42;9.18;;;;;;;26.28;27.90;98697.59;5024639;28;20126;-67
2022/11/24 10:55:06;;;;;;;21.63;8.80;;;;;;;26.16;29.15;98695.44;5025361;28;20487;-68
2022/11/24 10:57:54;;;;;;;19.63;8.93;;;;;;;26.05;29.44;98694.09;5028120;28;20077;-68
2022/11/24 11:00:36;;;;;;;21.20;9.38;;;;;;;26.07;29.91;98699.28;5028995;28;20070;-68
2022/11/24 11:03:28;;;;;;;18.00;9.07;;;;;;;25.94;29.78;98707.31;5028892;28;20053;-68
2022/11/24 11:06:21;;;;;;;25.15;9.65;;;;;;;25.97;30.15;98701.19;5029283;28;20049;-68
2022/11/24 11:09:13;;;;;;;22.33;9.85;;;;;;;25.87;30.50;98706.94;5014759;28;20120;-67
2022/11/24 11:11:55;;;;;;;21.85;9.32;;;;;;;25.83;30.87;98713.38;5009088;28;20056;-67
2022/11/24 11:15:31;;;;;;;24.50;9.30;;;;;;;25.68;31.82;98714.56;5002321;28;20048;-68
2022/11/24 11:18:18;;;;;;;26.33;10.27;;;;;;;25.49;31.91;98710.09;5008699;28;20056;-66
2022/11/24 11:21:08;;;;;;;22.35;9.55;;;;;;;25.43;33.79;98705.03;4989827;28;20133;-68
2022/11/24 11:23:51;;;;;;;36.80;10.68;;;;;;;25.40;32.41;98712.78;4989147;28;20054;-67
2022/11/24 11:26:42;;;;;;;20.05;8.75;;;;;;;25.20;34.01;98708.56;4989524;28;20773;-68
2022/11/24 11:29:27;;;;;;;25.15;10.45;;;;;;;25.01;36.80;98710.63;5020175;28;20053;-68
2022/11/24 11:32:37;;;;;;;22.88;9.65;;;;;;;24.69;37.69;98703.41;5037030;28;20045;-67
2022/11/24 11:35:46;;;;;;;27.50;10.07;;;;;;;24.43;38.14;98710.19;5048720;28;20052;-68
2022/11/24 11:38:30;;;;;;;21.98;9.98;;;;;;;24.26;40.47;98704.53;5067078;28;20044;-67
2022/11/24 11:41:33;;;;;;;31.70;10.50;;;;;;;24.18;39.87;98713.47;5028163;28;20056;-66
2022/11/24 11:44:36;;;;;;;23.92;9.75;;;;;;;23.98;40.62;98706.41;5027631;28;20053;-66
2022/11/24 11:47:39;;;;;;;28.10;9.55;;;;;;;23.88;40.24;98720.31;5038202;28;20056;-67
2022/11/24 11:50:20;;;;;;;37.88;10.20;;;;;;;23.74;40.09;98723.00;5028279;28;20124;-66
2022/11/24 11:53:23;;;;;;;25.95;10.80;;;;;;;23.61;40.31;98711.69;5045314;28;20061;-66
2022/11/24 11:56:13;;;;;;;34.80;12.07;;;;;;;23.38;41.87;98715.38;5045424;28;20041;-66
2022/11/24 11:59:17;;;;;;;35.75;11.07;;;;;;;23.23;42.08;98717.25;5045336;28;20060;-68
2022/11/24 12:02:17;;;;;;;40.30;12.65;;;;;;;23.00;43.04;98720.84;5045261;28;20689;-66
2022/11/24 12:05:15;;;;;;;37.88;11.50;;;;;;;22.91;42.64;98725.34;5043725;28;20041;-70
2022/11/24 12:08:16;;;;;;;35.65;12.55;;;;;;;22.72;44.19;98723.44;5040046;28;20303;-66
2022/11/24 12:11:11;;;;;;;33.40;11.57;;;;;;;22.66;43.95;98719.09;5045789;28;20519;-70
2022/11/24 12:14:12;;;;;;;32.65;11.82;;;;;;;22.57;43.48;98718.97;5044840;28;20128;-65
2022/11/24 12:17:16;;;;;;;42.92;12.10;;;;;;;22.40;43.93;98719.44;5047207;28;20053;-64
2022/11/24 12:20:19;;;;;;;34.90;11.73;;;;;;;22.31;43.99;98725.84;5043684;28;20601;-65
2022/11/24 12:23:28;;;;;;;46.70;12.57;;;;;;;22.24;44.33;98731.59;5035992;28;20306;-63
2022/11/24 12:26:28;;;;;;;75.20;13.98;;;;;;;22.18;45.05;98727.31;5045951;28;20052;-64
2022/11/24 12:29:45;;;;;;;65.53;15.77;;;;;;;22.00;46.03;98735.16;5045422;28;20083;-63
2022/11/24 12:32:59;;;;;;;55.65;12.80;;;;;;;21.86;45.72;98731.47;5041375;28;20794;-64
2022/11/24 12:35:44;;;;;;;64.65;13.75;;;;;;;21.78;46.40;98740.28;5040694;28;20542;-63
2022/11/24 12:38:49;;;;;;;57.15;15.65;;;;;;;21.69;46.39;98746.38;5041810;28;20053;-64
2022/11/24 12:41:46;;;;;;;59.88;15.23;;;;;;;21.54;47.66;98754.69;5044867;28;20122;-63
2022/11/24 12:45:03;;;;;;;79.78;17.23;;;;;;;21.52;47.55;98748.69;5037569;28;20163;-62
2022/11/24 12:48:03;;;;;;;55.88;15.15;;;;;;;21.43;48.71;98755.81;5035324;28;20050;-63
2022/11/24 12:51:00;;;;;;;57.60;17.83;;;;;;;21.34;48.87;98758.34;5041270;28;20033;-64
2022/11/24 12:53:38;;;;;;;60.17;16.55;;;;;;;21.25;48.72;98765.50;5038766;28;20052;-66
2022/11/24 12:56:47;;;;;;;57.90;17.10;;;;;;;21.21;48.28;98764.41;5045949;28;20049;-65
2022/11/24 12:59:38;;;;;;;53.00;17.70;;;;;;;21.14;49.51;98763.94;5041162;28;20570;-62
2022/11/24 13:03:07;;;;;;;56.75;17.58;;;;;;;21.05;48.54;98766.44;4694429;28;9999945;-62